Time;durP1;ratioP1;P1;durP2;ratioP2;P2;SDS_P1;SDS_P2;PMS_P1;PMS_P2;Temp;Humidity;BMP_temperature;BMP_pressure;BME280_temperature;BME280_humidity;BME280_pressure;Samples;Min_cycle;Max_cycle;Signal;HPM_P1;HPM_P2
2022/04/23 00:01:09;;;;;;;38.30;28.60;;;7.50;99.90;;;;;;5036299;28;20096;-58
2022/04/23 00:03:35;;;;;;;35.40;26.45;;;7.50;99.90;;;;;;5035161;28;20083;-58
2022/04/23 00:06:02;;;;;;;39.15;27.30;;;7.50;99.90;;;;;;5050796;28;20032;-56
2022/04/23 00:08:27;;;;;;;36.42;26.23;;;7.40;99.90;;;;;;5053498;28;20021;-57
2022/04/23 00:10:53;;;;;;;40.55;27.30;;;7.50;99.90;;;;;;5053177;28;20093;-58
2022/04/23 00:13:19;;;;;;;34.67;26.65;;;7.50;99.90;;;;;;5053181;28;20032;-57
2022/04/23 00:15:45;;;;;;;37.25;27.30;;;7.50;99.90;;;;;;5047217;28;20653;-56
2022/04/23 00:18:11;;;;;;;37.60;27.95;;;7.40;99.90;;;;;;5051512;28;20061;-58
2022/04/23 00:20:38;;;;;;;39.40;29.98;;;7.40;99.90;;;;;;5048407;28;20033;-58
2022/04/23 00:23:05;;;;;;;38.67;28.00;;;7.40;99.90;;;;;;5037028;28;20030;-58
2022/04/23 00:25:32;;;;;;;37.47;28.00;;;7.50;99.90;;;;;;5052916;28;20021;-57
2022/04/23 00:27:58;;;;;;;34.30;26.25;;;7.50;99.90;;;;;;5043489;28;20111;-57
2022/04/23 00:30:23;;;;;;;34.80;27.40;;;7.50;99.90;;;;;;5054368;28;20159;-57
2022/04/23 00:32:49;;;;;;;40.55;25.35;;;7.50;99.90;;;;;;5054577;28;20070;-55
2022/04/23 00:35:16;;;;;;;38.30;27.52;;;7.40;99.90;;;;;;5051632;28;20025;-57
2022/04/23 00:37:43;;;;;;;37.85;28.17;;;7.50;99.90;;;;;;5045309;28;20021;-58
2022/04/23 00:40:16;;;;;;;40.33;27.73;;;7.40;99.90;;;;;;5037369;28;20061;-59
2022/04/23 00:42:53;;;;;;;37.15;28.25;;;7.40;99.90;;;;;;5041071;28;20112;-54
2022/04/23 00:45:19;;;;;;;38.97;28.73;;;7.40;99.90;;;;;;5034387;28;20057;-57
2022/04/23 00:47:45;;;;;;;36.60;27.20;;;7.40;99.90;;;;;;5047150;28;20033;-56
2022/04/23 00:50:12;;;;;;;39.50;28.10;;;7.40;99.90;;;;;;5053605;28;20107;-59
2022/04/23 00:52:38;;;;;;;41.33;27.60;;;7.40;99.90;;;;;;5033124;28;20030;-59
2022/04/23 00:55:05;;;;;;;40.17;28.02;;;7.40;99.90;;;;;;5034226;28;20028;-59
2022/04/23 00:57:34;;;;;;;33.92;26.75;;;7.40;99.90;;;;;;5044706;28;20111;-58
2022/04/23 01:00:03;;;;;;;38.38;28.35;;;7.40;99.90;;;;;;5052390;28;20033;-58
2022/04/23 01:02:29;;;;;;;39.17;28.25;;;7.40;99.90;;;;;;5035596;28;20065;-57
2022/04/23 01:04:54;;;;;;;34.85;27.38;;;7.50;99.90;;;;;;5045173;28;20494;-58
2022/04/23 01:07:21;;;;;;;35.28;28.40;;;7.50;99.90;;;;;;5033791;28;20096;-57
2022/04/23 01:09:48;;;;;;;41.17;28.38;;;7.40;99.90;;;;;;5034955;28;20026;-55
2022/04/23 01:12:14;;;;;;;33.60;26.98;;;7.40;99.90;;;;;;5051850;28;20107;-58
2022/04/23 01:15:02;;;;;;;35.97;26.30;;;7.40;99.90;;;;;;5053377;28;20145;-57
2022/04/23 01:17:28;;;;;;;34.55;27.45;;;7.50;99.90;;;;;;5043675;28;20030;-58
2022/04/23 01:19:53;;;;;;;33.67;26.55;;;7.50;99.90;;;;;;5035532;28;20716;-58
2022/04/23 01:22:23;;;;;;;37.60;27.25;;;7.40;99.90;;;;;;5046006;28;20040;-58
2022/04/23 01:24:50;;;;;;;38.95;28.75;;;7.50;99.90;;;;;;5034531;28;20021;-59
2022/04/23 01:27:17;;;;;;;31.73;26.80;;;7.40;99.90;;;;;;5053338;28;20669;-58
2022/04/23 01:29:42;;;;;;;32.22;25.95;;;7.50;99.90;;;;;;5053222;28;20110;-57
2022/04/23 01:32:08;;;;;;;35.72;26.77;;;7.50;99.90;;;;;;5051655;28;20100;-58
2022/04/23 01:34:34;;;;;;;33.10;25.90;;;7.50;99.90;;;;;;5053366;28;20055;-58
2022/04/23 01:36:59;;;;;;;33.90;25.67;;;7.50;99.90;;;;;;5053176;28;20108;-57
2022/04/23 01:39:25;;;;;;;35.10;28.83;;;7.50;99.90;;;;;;5036916;28;20029;-57
2022/04/23 01:41:51;;;;;;;39.00;28.83;;;7.40;99.90;;;;;;5034309;28;20037;-57
2022/04/23 01:44:17;;;;;;;36.53;27.23;;;7.40;99.90;;;;;;5048088;28;20675;-58
2022/04/23 01:46:42;;;;;;;37.53;27.10;;;7.40;99.90;;;;;;5033334;28;20037;-57
2022/04/23 01:49:08;;;;;;;38.40;27.45;;;7.40;99.90;;;;;;5033119;28;20025;-58
2022/04/23 01:51:33;;;;;;;37.67;29.00;;;7.50;99.90;;;;;;5032967;28;20034;-59
2022/04/23 01:53:59;;;;;;;35.15;26.80;;;7.40;99.90;;;;;;5051573;28;20083;-58
2022/04/23 01:56:25;;;;;;;40.78;29.17;;;7.40;99.90;;;;;;5037985;28;20022;-59
2022/04/23 01:58:51;;;;;;;38.08;26.65;;;7.40;99.90;;;;;;5050568;28;20423;-57
2022/04/23 02:01:20;;;;;;;35.50;27.75;;;7.40;99.90;;;;;;5046895;28;20045;-57
2022/04/23 02:03:45;;;;;;;39.00;29.70;;;7.40;99.90;;;;;;5032798;28;20113;-58
2022/04/23 02:06:15;;;;;;;35.75;28.55;;;7.40;99.90;;;;;;5033819;28;20117;-58
2022/04/23 02:08:44;;;;;;;41.92;31.98;;;7.40;99.90;;;;;;5033183;28;20354;-57
2022/04/23 02:11:09;;;;;;;34.05;29.00;;;7.40;99.90;;;;;;5050529;28;20033;-58
2022/04/23 02:13:35;;;;;;;38.03;29.10;;;7.40;99.90;;;;;;5052414;28;20032;-58
2022/04/23 02:16:04;;;;;;;35.20;27.58;;;7.40;99.90;;;;;;5050826;28;20029;-55
2022/04/23 02:18:31;;;;;;;38.22;30.45;;;7.40;99.90;;;;;;5050760;28;20021;-58
2022/04/23 02:20:58;;;;;;;40.97;27.55;;;7.50;99.90;;;;;;5051870;28;20044;-57
2022/04/23 02:23:23;;;;;;;40.58;29.45;;;7.40;99.90;;;;;;5032507;28;20453;-58
2022/04/23 02:25:49;;;;;;;36.00;28.17;;;7.50;99.90;;;;;;5032308;28;20036;-56
2022/04/23 02:28:14;;;;;;;39.28;30.27;;;7.50;99.90;;;;;;5032359;28;20128;-57
2022/04/23 02:30:40;;;;;;;36.20;27.95;;;7.50;99.90;;;;;;5032390;28;20308;-57
2022/04/23 02:33:06;;;;;;;37.85;28.90;;;7.50;99.90;;;;;;5032506;28;20079;-59
2022/04/23 02:35:34;;;;;;;35.45;28.33;;;7.50;99.90;;;;;;5049661;28;20033;-57
2022/04/23 02:38:01;;;;;;;37.10;27.80;;;7.50;99.90;;;;;;5052219;28;20104;-58
2022/04/23 02:40:28;;;;;;;37.85;28.42;;;7.50;99.90;;;;;;5048489;28;20021;-59
2022/04/23 02:42:55;;;;;;;36.25;28.75;;;7.40;99.90;;;;;;5032187;28;20048;-56
2022/04/23 02:45:21;;;;;;;40.58;29.08;;;7.40;99.90;;;;;;5032067;28;20029;-58
2022/04/23 02:47:53;;;;;;;39.05;30.58;;;7.40;99.90;;;;;;5033778;28;20037;-58
2022/04/23 02:50:31;;;;;;;36.40;28.15;;;7.40;99.90;;;;;;5051446;28;20033;-57
2022/04/23 02:52:58;;;;;;;36.45;28.95;;;7.50;99.90;;;;;;5050405;28;20036;-57
2022/04/23 02:55:25;;;;;;;34.15;28.75;;;7.40;99.90;;;;;;5050141;28;20620;-58
2022/04/23 02:57:51;;;;;;;35.30;28.25;;;7.40;99.90;;;;;;5051551;28;20059;-57
2022/04/23 03:00:18;;;;;;;37.90;28.73;;;7.40;99.90;;;;;;5049775;28;20021;-56
2022/04/23 03:02:44;;;;;;;42.97;30.13;;;7.40;99.90;;;;;;5047667;28;20444;-57
2022/04/23 03:05:11;;;;;;;39.28;29.25;;;7.40;99.90;;;;;;5039887;28;20057;-56
2022/04/23 03:07:37;;;;;;;42.20;29.20;;;7.50;99.90;;;;;;5037098;28;20037;-58
2022/04/23 03:10:05;;;;;;;38.15;28.17;;;7.50;99.90;;;;;;5030924;28;20026;-58
2022/04/23 03:12:31;;;;;;;40.22;30.15;;;7.40;99.90;;;;;;5038480;28;20486;-58
2022/04/23 03:14:57;;;;;;;37.90;29.63;;;7.40;99.90;;;;;;5047684;28;20111;-56
2022/04/23 03:17:23;;;;;;;41.83;31.63;;;7.40;99.90;;;;;;5037679;28;20025;-58
2022/04/23 03:19:49;;;;;;;39.30;31.70;;;7.40;99.90;;;;;;5033101;28;20044;-59
2022/04/23 03:22:15;;;;;;;36.97;29.95;;;7.40;99.90;;;;;;5036775;28;20021;-59
2022/04/23 03:24:41;;;;;;;39.75;29.52;;;7.40;99.90;;;;;;5033597;28;20033;-56
2022/04/23 03:27:07;;;;;;;40.90;32.15;;;7.40;99.90;;;;;;5031619;28;20132;-58
2022/04/23 03:29:34;;;;;;;41.58;31.13;;;7.40;99.90;;;;;;5031447;28;20033;-58
2022/04/23 03:31:59;;;;;;;40.28;29.42;;;7.40;99.90;;;;;;5031329;28;20026;-57
2022/04/23 03:34:25;;;;;;;36.95;29.02;;;7.50;99.90;;;;;;5031320;28;20075;-57
2022/04/23 03:36:51;;;;;;;37.63;29.92;;;7.50;99.90;;;;;;5032603;28;20022;-56
2022/04/23 03:39:16;;;;;;;37.90;29.25;;;7.50;99.90;;;;;;5031179;28;20028;-56
2022/04/23 03:41:43;;;;;;;37.90;29.40;;;7.50;99.90;;;;;;5045003;28;20031;-58
2022/04/23 03:44:09;;;;;;;38.35;30.05;;;7.50;99.90;;;;;;5043376;28;20064;-56
2022/04/23 03:46:35;;;;;;;41.22;29.00;;;7.50;99.90;;;;;;5031249;28;20025;-57
2022/04/23 03:49:01;;;;;;;41.60;28.77;;;7.40;99.90;;;;;;5031391;28;20385;-57
2022/04/23 03:51:26;;;;;;;41.90;30.88;;;7.50;99.90;;;;;;5045827;28;20033;-58
2022/04/23 03:53:52;;;;;;;39.13;29.35;;;7.40;99.90;;;;;;5050647;28;20021;-59
2022/04/23 03:56:18;;;;;;;40.33;30.10;;;7.40;99.90;;;;;;5050893;28;20104;-58
2022/04/23 03:58:45;;;;;;;49.25;32.25;;;7.40;99.90;;;;;;5051169;28;20041;-57
2022/04/23 04:01:10;;;;;;;39.17;30.10;;;7.40;99.90;;;;;;5048731;28;20078;-57
2022/04/23 04:03:36;;;;;;;40.55;30.90;;;7.50;99.90;;;;;;5049502;28;20037;-57
2022/04/23 04:06:01;;;;;;;44.22;31.42;;;7.50;99.90;;;;;;5048211;28;20037;-58
2022/04/23 04:08:27;;;;;;;46.83;30.65;;;7.40;99.90;;;;;;5031122;28;20038;-56
2022/04/23 04:10:53;;;;;;;43.10;30.00;;;7.50;99.90;;;;;;5032426;28;20504;-57
2022/04/23 04:13:23;;;;;;;49.00;32.17;;;7.50;99.90;;;;;;5033609;28;20033;-57
2022/04/23 04:15:50;;;;;;;44.00;33.63;;;7.40;99.90;;;;;;5050529;28;20191;-57
2022/04/23 04:18:16;;;;;;;42.28;31.65;;;7.40;99.90;;;;;;5050858;28;20020;-57
2022/04/23 04:20:42;;;;;;;43.95;29.77;;;7.40;99.90;;;;;;5050758;28;20033;-59
2022/04/23 04:23:07;;;;;;;43.65;32.50;;;7.40;99.90;;;;;;5033371;28;20033;-58
2022/04/23 04:25:34;;;;;;;43.55;31.00;;;7.50;99.90;;;;;;5031156;28;20156;-57
2022/04/23 04:28:01;;;;;;;44.88;32.15;;;7.60;99.90;;;;;;5032467;28;20056;-57
2022/04/23 04:30:27;;;;;;;46.80;32.38;;;7.60;99.90;;;;;;5034269;28;20033;-59
2022/04/23 04:32:53;;;;;;;44.38;32.20;;;7.50;99.90;;;;;;5051004;28;20051;-58
2022/04/23 04:35:19;;;;;;;42.25;31.75;;;7.50;99.90;;;;;;5054010;28;20025;-58
2022/04/23 04:37:45;;;;;;;53.38;32.55;;;7.50;99.90;;;;;;5053119;28;20110;-58
2022/04/23 04:40:11;;;;;;;40.00;29.88;;;7.60;99.90;;;;;;5046491;28;20029;-54
2022/04/23 04:42:37;;;;;;;45.92;31.75;;;7.60;99.90;;;;;;5034514;28;20026;-57
2022/04/23 04:45:04;;;;;;;40.53;31.13;;;7.60;99.90;;;;;;5035093;28;20033;-58
2022/04/23 04:47:29;;;;;;;46.00;32.42;;;7.50;99.90;;;;;;5053973;28;20025;-56
2022/04/23 04:49:55;;;;;;;44.80;31.02;;;7.60;99.90;;;;;;5053596;28;20040;-58
2022/04/23 04:52:21;;;;;;;49.35;32.60;;;7.50;99.90;;;;;;5052021;28;20025;-58
2022/04/23 04:54:47;;;;;;;43.63;32.22;;;7.60;99.90;;;;;;5034259;28;20091;-58
2022/04/23 04:57:13;;;;;;;45.65;33.03;;;7.60;99.90;;;;;;5033941;28;20021;-58
2022/04/23 04:59:39;;;;;;;44.88;32.92;;;7.60;99.90;;;;;;5046080;28;20033;-58
2022/04/23 05:02:05;;;;;;;50.75;34.40;;;7.60;99.90;;;;;;5051714;28;20404;-57
2022/04/23 05:04:31;;;;;;;60.72;36.78;;;7.60;99.90;;;;;;5046985;28;20033;-56
2022/04/23 05:06:57;;;;;;;57.10;37.70;;;7.60;99.90;;;;;;5033978;28;20029;-59
2022/04/23 05:09:23;;;;;;;63.40;36.30;;;7.60;99.90;;;;;;5034334;28;20641;-59
2022/04/23 05:11:49;;;;;;;62.58;38.97;;;7.70;99.90;;;;;;5053819;28;20021;-58
2022/04/23 05:14:16;;;;;;;55.45;36.05;;;7.60;99.90;;;;;;5051797;28;20041;-58
2022/04/23 05:16:43;;;;;;;71.63;38.13;;;7.60;99.90;;;;;;5052076;28;20100;-59
2022/04/23 05:19:08;;;;;;;60.30;37.70;;;7.70;99.90;;;;;;5052061;28;20029;-59
2022/04/23 05:21:34;;;;;;;59.17;37.28;;;7.70;99.90;;;;;;5053340;28;20052;-57
2022/04/23 05:24:00;;;;;;;65.45;38.10;;;7.70;99.90;;;;;;5044555;28;20030;-58
2022/04/23 05:26:26;;;;;;;63.22;37.40;;;7.80;99.90;;;;;;5032848;28;20017;-57
2022/04/23 05:28:51;;;;;;;60.70;37.67;;;7.80;99.90;;;;;;5048759;28;20051;-57
2022/04/23 05:31:17;;;;;;;66.07;39.88;;;7.80;99.90;;;;;;5051562;28;20495;-58
2022/04/23 05:33:43;;;;;;;65.28;41.38;;;7.80;99.90;;;;;;5052339;28;20077;-57
2022/04/23 05:36:08;;;;;;;64.68;40.10;;;7.80;99.90;;;;;;5050769;28;20025;-57
2022/04/23 05:38:35;;;;;;;68.65;40.53;;;7.80;99.90;;;;;;5052881;28;20431;-56
2022/04/23 05:41:01;;;;;;;76.40;42.60;;;7.80;99.90;;;;;;5039078;28;20032;-56
2022/04/23 05:43:26;;;;;;;73.70;43.00;;;7.90;99.90;;;;;;5032614;28;20109;-58
2022/04/23 05:45:52;;;;;;;83.38;46.45;;;7.80;99.90;;;;;;5032595;28;20536;-54
2022/04/23 05:48:18;;;;;;;88.68;45.28;;;7.80;99.90;;;;;;5032937;28;20031;-58
2022/04/23 05:50:43;;;;;;;85.18;46.13;;;7.80;99.90;;;;;;5033195;28;20021;-57
2022/04/23 05:53:11;;;;;;;78.20;44.40;;;7.80;99.90;;;;;;5033044;28;20033;-58
2022/04/23 05:55:36;;;;;;;84.03;47.55;;;7.90;99.90;;;;;;5042436;28;20025;-58
2022/04/23 05:58:02;;;;;;;83.85;44.75;;;7.90;99.90;;;;;;5043558;28;20492;-58
2022/04/23 06:00:28;;;;;;;92.53;49.55;;;7.90;99.90;;;;;;5032588;28;20136;-57
2022/04/23 06:02:53;;;;;;;92.53;48.67;;;7.90;99.90;;;;;;5032989;28;20373;-58
2022/04/23 06:05:19;;;;;;;91.13;50.30;;;7.90;99.90;;;;;;5038421;28;20025;-57
2022/04/23 06:07:45;;;;;;;79.40;46.75;;;8.00;99.90;;;;;;5037722;28;20059;-57
2022/04/23 06:10:11;;;;;;;77.13;44.70;;;8.00;99.90;;;;;;5032161;28;20053;-58
2022/04/23 06:12:37;;;;;;;73.60;46.03;;;8.00;99.90;;;;;;5052098;28;20025;-58
2022/04/23 06:15:03;;;;;;;86.65;47.45;;;8.10;99.90;;;;;;5050859;28;20044;-55
2022/04/23 06:17:29;;;;;;;84.32;46.35;;;8.10;99.90;;;;;;5051717;28;21535;-58
2022/04/23 06:19:58;;;;;;;83.25;44.50;;;8.10;99.90;;;;;;5051386;28;20025;-57
2022/04/23 06:22:24;;;;;;;80.32;44.58;;;8.20;99.90;;;;;;5050308;28;20079;-59
2022/04/23 06:24:50;;;;;;;71.90;42.70;;;8.10;99.90;;;;;;5051401;28;20056;-58
2022/04/23 06:27:16;;;;;;;78.82;43.97;;;8.20;99.90;;;;;;5035529;28;20036;-58
2022/04/23 06:29:42;;;;;;;71.80;41.72;;;8.20;99.90;;;;;;5032098;28;20041;-58
2022/04/23 06:32:09;;;;;;;76.28;42.63;;;8.20;99.90;;;;;;5031929;28;20397;-59
2022/04/23 06:34:37;;;;;;;70.82;42.67;;;8.30;99.90;;;;;;5032102;28;20489;-63
2022/04/23 06:37:03;;;;;;;77.50;44.00;;;8.20;99.90;;;;;;5032102;28;20099;-67
2022/04/23 06:39:28;;;;;;;80.85;41.92;;;8.20;99.90;;;;;;5043976;28;20443;-69
2022/04/23 06:41:54;;;;;;;78.10;43.28;;;8.30;99.90;;;;;;5030618;28;20116;-67
2022/04/23 06:44:20;;;;;;;71.68;41.92;;;8.30;99.90;;;;;;5041555;28;20025;-51
2022/04/23 06:46:45;;;;;;;73.65;41.78;;;8.40;99.90;;;;;;5061062;28;20036;-52
2022/04/23 06:49:11;;;;;;;65.38;39.88;;;8.50;99.90;;;;;;5051112;28;20092;-49
2022/04/23 06:51:37;;;;;;;64.18;38.55;;;8.60;99.90;;;;;;5044658;28;20033;-56
2022/04/23 06:54:04;;;;;;;67.90;37.97;;;8.60;99.90;;;;;;5041778;28;20048;-54
2022/04/23 06:56:30;;;;;;;72.78;40.78;;;8.70;99.90;;;;;;5051463;28;20099;-57
2022/04/23 06:58:56;;;;;;;76.63;38.15;;;8.80;99.90;;;;;;5051911;28;20013;-54
2022/04/23 07:01:21;;;;;;;60.70;36.38;;;8.70;99.90;;;;;;5046425;28;20384;-53
2022/04/23 07:03:47;;;;;;;57.40;35.38;;;8.70;99.90;;;;;;5031712;28;20029;-55
2022/04/23 07:06:13;;;;;;;55.42;36.25;;;8.80;99.90;;;;;;5031197;28;20079;-51
2022/04/23 07:08:40;;;;;;;62.45;36.90;;;8.70;99.90;;;;;;5031910;28;20053;-52
2022/04/23 07:11:06;;;;;;;62.72;38.50;;;8.90;99.90;;;;;;5031545;28;20037;-54
2022/04/23 07:13:32;;;;;;;66.65;37.22;;;8.90;99.90;;;;;;5031613;28;20021;-55
2022/04/23 07:15:58;;;;;;;57.67;34.63;;;8.80;99.90;;;;;;5031456;28;20112;-56
2022/04/23 07:18:24;;;;;;;56.00;35.83;;;8.90;99.90;;;;;;5032363;28;20735;-52
2022/04/23 07:20:50;;;;;;;55.58;35.75;;;8.90;99.90;;;;;;5063490;28;20104;-55
2022/04/23 07:26:00;;;;;;;58.78;36.35;;;9.00;99.90;;;;;;5064722;28;20086;-52
2022/04/23 07:28:25;;;;;;;78.60;50.53;;;9.00;99.90;;;;;;5070311;28;20024;-54
2022/04/23 07:30:51;;;;;;;63.20;39.85;;;9.10;99.90;;;;;;5052155;28;20025;-54
2022/04/23 07:41:48;;;;;;;52.25;31.08;;;8.90;99.90;;;;;;5030749;28;19959;-52
2022/04/23 07:44:14;;;;;;;54.90;32.40;;;9.00;99.90;;;;;;5031378;28;20056;-53
2022/04/23 07:46:39;;;;;;;54.25;34.17;;;9.00;99.90;;;;;;5046027;28;20033;-55
2022/04/23 07:49:05;;;;;;;56.97;33.28;;;9.00;99.90;;;;;;5041938;28;20033;-51
2022/04/23 07:51:31;;;;;;;51.25;32.35;;;9.10;99.90;;;;;;5047362;28;20036;-53
2022/04/23 07:53:57;;;;;;;52.00;31.33;;;9.00;99.90;;;;;;5048034;28;20021;-54
2022/04/23 07:56:23;;;;;;;48.67;31.08;;;9.00;99.90;;;;;;5031176;28;20113;-53
2022/04/23 07:58:49;;;;;;;50.97;31.98;;;9.20;99.90;;;;;;5031352;28;20021;-54
2022/04/23 08:01:14;;;;;;;50.97;29.42;;;9.30;99.90;;;;;;5033303;28;20033;-56
2022/04/23 08:03:41;;;;;;;41.65;28.52;;;9.40;99.90;;;;;;5043743;28;20365;-55
2022/04/23 08:06:07;;;;;;;47.67;31.08;;;9.50;99.90;;;;;;5054809;28;20036;-53
2022/04/23 08:08:33;;;;;;;53.95;32.60;;;9.60;99.90;;;;;;5047153;28;20029;-55
2022/04/23 08:10:59;;;;;;;48.83;31.17;;;9.70;99.90;;;;;;5074499;28;20048;-53
2022/04/23 08:13:24;;;;;;;46.45;30.23;;;9.80;99.90;;;;;;5074823;28;20031;-56
2022/04/23 08:15:51;;;;;;;45.25;27.92;;;9.90;99.90;;;;;;5073359;28;20450;-56
2022/04/23 08:18:16;;;;;;;55.67;37.55;;;9.90;99.90;;;;;;5074742;28;20023;-57
2022/04/23 08:20:43;;;;;;;56.83;35.10;;;9.60;99.90;;;;;;5061080;28;20384;-54
2022/04/23 08:23:09;;;;;;;51.72;33.85;;;9.60;99.90;;;;;;5054753;28;20025;-54
2022/04/23 08:25:35;;;;;;;46.95;31.42;;;9.50;99.90;;;;;;5054758;28;20100;-56
2022/04/23 08:30:46;;;;;;;42.50;28.60;;;9.60;99.90;;;;;;5054513;28;20696;-53
2022/04/23 08:33:11;;;;;;;45.20;28.17;;;9.60;99.90;;;;;;5054527;28;20625;-54
2022/04/23 08:35:38;;;;;;;49.08;32.13;;;9.70;99.90;;;;;;5053887;28;20032;-53
2022/04/23 08:38:06;;;;;;;47.45;30.15;;;9.60;99.90;;;;;;5053898;28;20044;-53
2022/04/23 08:40:44;;;;;;;50.03;30.08;;;9.60;99.90;;;;;;5054087;28;20028;-52
2022/04/23 08:43:11;;;;;;;50.60;31.05;;;9.50;99.90;;;;;;5056743;28;20017;-55
2022/04/23 08:45:38;;;;;;;57.65;34.95;;;9.50;99.90;;;;;;5064119;28;20372;-54
2022/04/23 08:48:09;;;;;;;49.72;32.00;;;9.50;99.90;;;;;;5054446;28;20024;-52
2022/04/23 08:50:38;;;;;;;51.38;32.00;;;9.60;99.90;;;;;;5071906;28;20440;-56
2022/04/23 08:53:31;;;;;;;53.28;33.13;;;9.60;99.90;;;;;;5074107;28;20603;-57
2022/04/23 08:55:57;;;;;;;50.03;31.00;;;9.70;99.90;;;;;;5064312;28;20461;-56
2022/04/23 08:58:24;;;;;;;45.92;29.60;;;9.80;99.90;;;;;;5069397;28;20036;-55
2022/04/23 09:00:49;;;;;;;39.53;25.42;;;9.80;99.90;;;;;;5070566;28;20029;-55
2022/04/23 09:03:18;;;;;;;38.08;25.52;;;10.00;99.90;;;;;;5053844;28;20410;-53
2022/04/23 09:05:50;;;;;;;38.45;25.70;;;9.90;99.90;;;;;;5053787;28;20029;-54
2022/04/23 09:08:16;;;;;;;40.95;27.63;;;10.00;99.90;;;;;;5052726;28;20444;-56
2022/04/23 09:10:46;;;;;;;39.75;27.77;;;9.80;99.90;;;;;;5053671;28;20044;-55
2022/04/23 09:13:32;;;;;;;42.45;29.33;;;9.80;99.90;;;;;;5052931;28;20029;-56
2022/04/23 09:24:46;;;;;;;44.13;28.52;;;10.40;99.90;;;;;;5032996;28;20037;-57
2022/04/23 09:27:12;;;;;;;46.55;27.80;;;10.40;99.90;;;;;;5032802;28;20472;-56
2022/04/23 09:29:40;;;;;;;51.28;29.33;;;10.50;99.90;;;;;;5033115;28;20044;-57
2022/04/23 09:32:19;;;;;;;40.80;26.92;;;10.40;99.90;;;;;;5033332;28;20357;-55
2022/04/23 09:34:45;;;;;;;46.28;27.20;;;10.40;99.90;;;;;;5033073;28;20017;-57
2022/04/23 09:37:11;;;;;;;46.33;27.30;;;10.30;99.90;;;;;;5032628;28;20709;-58
2022/04/23 09:39:38;;;;;;;41.22;26.25;;;10.40;99.90;;;;;;5049103;28;20024;-56
2022/04/23 09:42:17;;;;;;;42.28;26.60;;;10.50;99.90;;;;;;5052078;28;20025;-57
2022/04/23 09:44:46;;;;;;;39.90;25.63;;;10.60;99.90;;;;;;5032425;28;20508;-57
2022/04/23 09:47:32;;;;;;;45.33;26.65;;;10.40;99.90;;;;;;5031836;28;20082;-56
2022/04/23 09:49:58;;;;;;;44.63;28.15;;;10.60;99.90;;;;;;5032900;28;20028;-57
2022/04/23 09:52:29;;;;;;;36.78;26.65;;;10.70;99.90;;;;;;5031948;28;20025;-52
2022/04/23 09:54:56;;;;;;;34.58;24.52;;;10.70;99.90;;;;;;5032749;28;20037;-56
2022/04/23 09:57:23;;;;;;;34.47;23.48;;;10.70;99.90;;;;;;5032525;28;20018;-55
2022/04/23 09:59:52;;;;;;;35.33;23.92;;;10.90;99.90;;;;;;5032706;28;20382;-57
2022/04/23 10:02:21;;;;;;;36.17;25.13;;;11.10;99.90;;;;;;5031940;28;20029;-54
2022/04/23 10:04:47;;;;;;;40.70;27.73;;;11.50;99.90;;;;;;5036532;28;20481;-56
2022/04/23 10:07:17;;;;;;;35.55;24.83;;;11.90;99.90;;;;;;5052226;28;20108;-56
2022/04/23 10:09:45;;;;;;;37.22;25.20;;;11.90;99.90;;;;;;5051129;28;20368;-55
2022/04/23 10:12:19;;;;;;;42.67;27.73;;;12.10;99.90;;;;;;5051760;28;20020;-51
2022/04/23 10:14:56;;;;;;;43.55;28.08;;;11.90;99.90;;;;;;5052348;28;20037;-57
2022/04/23 10:17:24;;;;;;;42.53;28.33;;;11.90;99.90;;;;;;5052379;28;20071;-57
2022/04/23 10:19:51;;;;;;;38.80;28.05;;;11.70;99.90;;;;;;5052531;28;20036;-56
2022/04/23 10:22:28;;;;;;;39.33;26.88;;;11.70;99.90;;;;;;5052180;28;20021;-53
2022/04/23 10:25:05;;;;;;;42.45;29.30;;;11.60;99.90;;;;;;5051749;28;20476;-57
2022/04/23 10:27:30;;;;;;;40.95;27.65;;;11.50;99.90;;;;;;5021225;28;22778;-57
2022/04/23 10:29:59;;;;;;;43.25;29.55;;;11.30;99.90;;;;;;5021972;28;20117;-54
2022/04/23 10:32:25;;;;;;;41.85;28.95;;;11.40;99.90;;;;;;5040784;28;20033;-53
2022/04/23 10:34:51;;;;;;;42.08;28.55;;;11.50;99.90;;;;;;5041472;28;20040;-57
2022/04/23 10:37:24;;;;;;;44.85;31.77;;;11.60;99.90;;;;;;5041505;28;20640;-56
2022/04/23 10:39:53;;;;;;;47.22;30.65;;;11.50;99.90;;;;;;5039203;28;20941;-57
2022/04/23 10:42:24;;;;;;;49.45;34.13;;;11.40;99.90;;;;;;5024524;28;20068;-54
2022/04/23 10:44:51;;;;;;;48.15;31.13;;;11.30;99.90;;;;;;5022089;28;20123;-57
2022/04/23 10:47:39;;;;;;;52.47;32.13;;;11.00;99.90;;;;;;5021760;28;20052;-57
2022/04/23 10:50:15;;;;;;;45.70;32.08;;;10.80;99.90;;;;;;5027914;28;20025;-55
2022/04/23 10:52:41;;;;;;;48.05;32.40;;;10.80;99.90;;;;;;5039812;28;20040;-57
2022/04/23 10:55:08;;;;;;;46.67;30.02;;;10.90;99.90;;;;;;5024749;28;20354;-57
2022/04/23 10:57:39;;;;;;;43.28;28.30;;;11.30;99.90;;;;;;5032137;28;20021;-54
2022/04/23 11:00:17;;;;;;;38.40;27.75;;;11.70;99.90;;;;;;5021551;28;20028;-56
2022/04/23 11:02:47;;;;;;;39.65;27.38;;;12.00;99.90;;;;;;5021221;28;20021;-57
2022/04/23 11:13:53;;;;;;;31.63;22.50;;;12.00;99.90;;;;;;5021190;28;20057;-56
2022/04/23 11:16:24;;;;;;;36.08;24.98;;;11.60;99.90;;;;;;5020505;28;20468;-56
2022/04/23 11:18:54;;;;;;;32.20;23.17;;;11.50;99.90;;;;;;5020953;28;20155;-57
2022/04/23 11:21:24;;;;;;;31.23;22.48;;;11.80;99.90;;;;;;5020449;28;20033;-57
2022/04/23 11:23:51;;;;;;;37.38;24.92;;;11.90;99.90;;;;;;5020526;28;20124;-58
2022/04/23 11:26:18;;;;;;;31.65;23.55;;;11.70;99.90;;;;;;5021031;28;20041;-55
2022/04/23 11:28:46;;;;;;;34.33;24.52;;;11.50;99.90;;;;;;5021685;28;20030;-57
2022/04/23 11:31:16;;;;;;;34.90;24.52;;;11.60;99.90;;;;;;5020922;28;20042;-56
2022/04/23 11:33:55;;;;;;;34.65;24.02;;;11.50;99.90;;;;;;5019954;28;20038;-57
2022/04/23 11:36:36;;;;;;;37.33;25.63;;;11.80;99.90;;;;;;5021765;28;20073;-56
2022/04/23 11:39:09;;;;;;;31.27;23.20;;;12.10;99.90;;;;;;5026676;28;20032;-57
2022/04/23 11:41:39;;;;;;;36.80;23.70;;;12.50;99.90;;;;;;5027255;28;20068;-56
2022/04/23 11:47:11;;;;;;;28.00;19.60;;;13.80;99.90;;;;;;5027423;28;20123;-57
2022/04/23 11:49:37;;;;;;;26.90;20.70;;;14.70;99.90;;;;;;5027922;28;20052;-55
2022/04/23 11:52:11;;;;;;;24.77;18.90;;;14.50;99.90;;;;;;5028043;28;20029;-52
2022/04/23 11:54:41;;;;;;;28.75;20.00;;;14.50;99.90;;;;;;5027098;28;20026;-58
2022/04/23 11:57:09;;;;;;;30.00;21.63;;;14.20;99.90;;;;;;5027681;28;20112;-56
2022/04/23 11:59:40;;;;;;;26.60;21.75;;;14.10;99.90;;;;;;5025525;28;20501;-54
2022/04/23 12:02:23;;;;;;;35.65;21.83;;;13.80;99.90;;;;;;5027102;28;20040;-54
2022/04/23 12:04:53;;;;;;;29.80;22.10;;;13.70;99.90;;;;;;5027353;28;20029;-53
2022/04/23 12:07:20;;;;;;;27.33;20.83;;;13.30;99.90;;;;;;5026890;28;20037;-54
2022/04/23 12:09:57;;;;;;;27.77;20.42;;;13.70;99.90;;;;;;5027009;28;20037;-54
2022/04/23 12:12:25;;;;;;;26.00;20.98;;;13.90;99.90;;;;;;5028257;28;22474;-55
2022/04/23 12:14:58;;;;;;;32.35;23.17;;;14.10;99.90;;;;;;5026407;28;20045;-52
2022/04/23 12:17:29;;;;;;;27.00;19.98;;;14.30;99.90;;;;;;5027985;28;20432;-55
2022/04/23 12:19:56;;;;;;;27.85;20.00;;;14.30;99.90;;;;;;5027459;28;20052;-56
2022/04/23 12:22:31;;;;;;;25.83;19.60;;;14.40;99.90;;;;;;5026917;28;20061;-56
2022/04/23 12:25:10;;;;;;;44.63;35.53;;;14.80;99.90;;;;;;5025879;28;20060;-57
2022/04/23 12:27:51;;;;;;;139.30;86.63;;;14.30;99.90;;;;;;5027114;28;22332;-57
2022/04/23 12:40:44;;;;;;;229.73;150.57;;;13.60;99.90;;;;;;5026451;28;20052;-57
2022/04/23 12:41:24;;;;;;;56.20;42.13;;;12.90;99.90;;;;;;5027555;28;20126;-54
2022/04/23 12:43:52;;;;;;;87.13;67.55;;;12.70;99.90;;;;;;5026313;28;20477;-57
2022/04/23 12:46:17;;;;;;;85.43;64.40;;;12.60;99.90;;;;;;5026231;28;20464;-55
2022/04/23 12:49:03;;;;;;;58.35;41.38;;;12.70;99.90;;;;;;5023945;28;20029;-57
2022/04/23 12:51:30;;;;;;;74.15;55.50;;;13.30;99.90;;;;;;5023128;28;20083;-57
2022/04/23 12:53:56;;;;;;;55.38;37.10;;;13.40;99.90;;;;;;5023983;28;20380;-56
2022/04/23 12:56:35;;;;;;;52.17;37.10;;;13.50;99.90;;;;;;5022603;28;20026;-57
2022/04/23 12:59:02;;;;;;;50.47;33.40;;;13.50;99.90;;;;;;5023855;28;20025;-56
2022/04/23 13:01:28;;;;;;;43.15;30.27;;;13.50;99.90;;;;;;5022137;28;20484;-56
2022/04/23 13:03:55;;;;;;;34.80;27.40;;;13.60;99.90;;;;;;5022730;28;20049;-55
2022/04/23 13:09:05;;;;;;;34.83;26.67;;;13.80;99.90;;;;;;5024036;28;20169;-57
2022/04/23 13:11:31;;;;;;;39.55;29.40;;;13.90;99.90;;;;;;5022074;28;20025;-56
2022/04/23 13:13:59;;;;;;;35.35;25.95;;;14.30;99.90;;;;;;5022843;28;20065;-56
2022/04/23 13:16:27;;;;;;;41.13;30.30;;;14.30;99.90;;;;;;5022215;28;20052;-57
2022/04/23 13:18:55;;;;;;;35.63;25.98;;;14.50;99.90;;;;;;5022938;28;20052;-56
2022/04/23 13:21:22;;;;;;;32.45;23.00;;;14.60;99.90;;;;;;5022661;28;20060;-56